Time;durP1;ratioP1;P1;durP2;ratioP2;P2;SDS_P1;SDS_P2;PMS_P1;PMS_P2;Temp;Humidity;BMP_temperature;BMP_pressure;BME280_temperature;BME280_humidity;BME280_pressure;Samples;Min_cycle;Max_cycle;Signal;HPM_P1;HPM_P2
2022/01/05 00:02:25;;;;;;;12.43;1.45;;;1.80;99.90;;;;;;5114701;28;20039;-80
2022/01/05 00:04:51;;;;;;;9.30;1.27;;;1.70;99.90;;;;;;5114986;28;20037;-86
2022/01/05 00:07:16;;;;;;;11.07;2.45;;;2.30;99.90;;;;;;5097600;28;20551;-84
2022/01/05 00:09:43;;;;;;;16.38;1.73;;;2.30;99.90;;;;;;5115889;28;20088;-79
2022/01/05 00:12:10;;;;;;;6.60;1.20;;;1.80;99.90;;;;;;5114465;28;20450;-77
2022/01/05 00:14:35;;;;;;;8.15;1.45;;;1.90;99.90;;;;;;5114798;28;20513;-79
2022/01/05 00:17:01;;;;;;;10.43;1.30;;;1.70;99.90;;;;;;5097769;28;20028;-90
2022/01/05 00:19:26;;;;;;;12.48;2.03;;;1.80;99.90;;;;;;5113939;28;20422;-79
2022/01/05 00:21:52;;;;;;;8.88;1.27;;;1.80;99.90;;;;;;5114110;27;20039;-78
2022/01/05 00:24:17;;;;;;;7.18;1.35;;;2.20;99.90;;;;;;5117874;27;20042;-78
2022/01/05 00:26:43;;;;;;;8.23;1.20;;;1.70;99.90;;;;;;5118038;27;20483;-79
2022/01/05 00:29:09;;;;;;;13.95;1.73;;;2.20;99.90;;;;;;5118656;27;20450;-86
2022/01/05 00:31:34;;;;;;;8.27;1.25;;;1.80;99.90;;;;;;5118035;27;20075;-85
2022/01/05 00:34:00;;;;;;;14.57;1.50;;;1.80;99.90;;;;;;5117938;27;20043;-83
2022/01/05 00:36:25;;;;;;;15.98;1.92;;;2.40;99.90;;;;;;5101337;27;20043;-84
2022/01/05 00:38:51;;;;;;;8.63;1.17;;;2.10;99.90;;;;;;5118312;27;20043;-83
2022/01/05 00:41:16;;;;;;;14.38;1.40;;;1.80;99.90;;;;;;5118092;27;20130;-79
2022/01/05 00:43:42;;;;;;;14.25;1.15;;;1.90;99.90;;;;;;5117726;27;20115;-91
2022/01/05 00:46:08;;;;;;;11.15;1.52;;;2.20;99.90;;;;;;5118222;27;20087;-90
2022/01/05 00:48:34;;;;;;;10.98;1.48;;;2.40;99.90;;;;;;5116824;27;20556;-79
2022/01/05 00:51:06;;;;;;;10.25;1.73;;;2.10;99.90;;;;;;5101203;27;20092;-83
2022/01/05 00:53:33;;;;;;;9.32;2.22;;;2.10;99.90;;;;;;5100856;27;20039;-78
2022/01/05 00:55:59;;;;;;;9.70;1.30;;;2.30;99.90;;;;;;5117385;27;20035;-84
2022/01/05 00:58:25;;;;;;;13.30;2.53;;;2.30;99.90;;;;;;5100603;27;20130;-79
2022/01/05 01:00:50;;;;;;;14.00;2.13;;;2.50;99.90;;;;;;5117748;27;20050;-84
2022/01/05 01:03:16;;;;;;;6.53;1.52;;;2.40;99.90;;;;;;5116987;27;20058;-79
2022/01/05 01:05:41;;;;;;;12.00;2.08;;;2.50;99.90;;;;;;5117462;27;20035;-79
2022/01/05 01:08:07;;;;;;;13.23;1.77;;;2.50;99.90;;;;;;5118458;27;20360;-89
2022/01/05 01:10:33;;;;;;;11.40;2.13;;;2.60;99.90;;;;;;5100549;27;20037;-79
2022/01/05 01:12:59;;;;;;;12.23;1.80;;;2.60;99.90;;;;;;5117240;27;20451;-89
2022/01/05 01:15:24;;;;;;;13.07;2.10;;;2.30;99.90;;;;;;5117066;27;20038;-90
2022/01/05 01:17:50;;;;;;;24.23;3.42;;;3.10;99.90;;;;;;5099990;27;20039;-78
2022/01/05 01:20:16;;;;;;;6.65;1.58;;;2.80;99.90;;;;;;5118242;27;20075;-79
2022/01/05 01:22:42;;;;;;;9.77;1.00;;;2.80;99.90;;;;;;5116931;27;20055;-87
2022/01/05 01:25:08;;;;;;;7.30;1.73;;;2.80;99.90;;;;;;5135328;27;20050;-85
2022/01/05 01:27:35;;;;;;;7.13;1.40;;;2.90;99.90;;;;;;5117464;27;20042;-79
2022/01/05 01:30:01;;;;;;;15.73;2.33;;;2.80;99.90;;;;;;5116562;27;20045;-86
2022/01/05 01:32:26;;;;;;;11.57;1.70;;;2.90;99.90;;;;;;5116588;27;20045;-79
2022/01/05 01:34:52;;;;;;;8.10;1.13;;;3.00;99.90;;;;;;5100013;27;20118;-91
2022/01/05 01:37:17;;;;;;;11.60;1.70;;;3.00;99.90;;;;;;5117360;27;20027;-78
2022/01/05 01:39:43;;;;;;;12.82;1.40;;;3.00;99.90;;;;;;5102671;27;20046;-80
2022/01/05 01:42:09;;;;;;;13.88;2.05;;;2.90;99.90;;;;;;5119360;27;20049;-80
2022/01/05 01:44:34;;;;;;;6.85;0.88;;;2.90;99.90;;;;;;5118104;27;20050;-80
2022/01/05 01:47:00;;;;;;;15.68;2.28;;;2.90;99.90;;;;;;5136217;27;20054;-78
2022/01/05 01:49:25;;;;;;;10.80;1.80;;;2.80;99.90;;;;;;5117353;27;20477;-79
2022/01/05 01:51:51;;;;;;;12.98;1.77;;;2.90;99.90;;;;;;5115652;27;20042;-79
2022/01/05 01:54:17;;;;;;;14.35;2.45;;;2.80;99.90;;;;;;5117510;27;20035;-88
2022/01/05 01:56:46;;;;;;;12.57;1.98;;;2.80;99.90;;;;;;5116765;27;20251;-80
2022/01/05 01:59:12;;;;;;;16.15;2.20;;;2.80;99.90;;;;;;5115486;27;20075;-81
2022/01/05 02:01:39;;;;;;;7.88;1.27;;;2.60;99.90;;;;;;5115940;27;20521;-79
2022/01/05 02:04:05;;;;;;;11.07;1.52;;;2.90;99.90;;;;;;5116218;27;20039;-78
2022/01/05 02:06:31;;;;;;;22.27;3.22;;;2.70;99.90;;;;;;5115995;27;20069;-82
2022/01/05 02:08:58;;;;;;;13.73;2.15;;;4.50;99.90;;;;;;5134993;27;20046;-90
2022/01/05 02:11:25;;;;;;;14.15;2.28;;;2.60;99.90;;;;;;5115998;27;20051;-81
2022/01/05 02:13:51;;;;;;;17.27;1.98;;;2.60;99.90;;;;;;5115553;27;20046;-90
2022/01/05 02:16:32;;;;;;;15.95;1.80;;;2.60;99.90;;;;;;5116607;27;20038;-89
2022/01/05 02:18:58;;;;;;;16.83;2.00;;;2.70;99.90;;;;;;5126610;27;20568;-88
2022/01/05 02:21:29;;;;;;;13.65;1.48;;;2.80;99.90;;;;;;5115325;27;20045;-78
2022/01/05 02:23:55;;;;;;;17.85;2.38;;;2.80;99.90;;;;;;5116822;27;20050;-89
2022/01/05 02:26:20;;;;;;;15.23;2.03;;;2.90;99.90;;;;;;5115374;27;20405;-89
2022/01/05 02:28:46;;;;;;;12.63;2.53;;;2.90;99.90;;;;;;5099186;27;20042;-79
2022/01/05 02:31:12;;;;;;;14.52;1.17;;;2.80;99.90;;;;;;5098725;27;20039;-85
2022/01/05 02:33:40;;;;;;;16.15;2.63;;;2.90;99.90;;;;;;5115625;27;20406;-82
2022/01/05 02:36:07;;;;;;;14.38;2.53;;;2.90;99.90;;;;;;5116869;27;20084;-81
2022/01/05 02:38:33;;;;;;;13.20;2.10;;;2.80;99.90;;;;;;5116801;27;20118;-86
2022/01/05 02:41:08;;;;;;;12.50;1.75;;;3.00;99.90;;;;;;5116706;27;20075;-79
2022/01/05 02:43:36;;;;;;;13.00;2.05;;;2.90;99.90;;;;;;5116270;27;20083;-88
2022/01/05 02:46:03;;;;;;;15.00;1.42;;;3.00;99.90;;;;;;5133441;27;20490;-80
2022/01/05 02:48:28;;;;;;;15.57;1.73;;;2.90;99.90;;;;;;5114859;27;20099;-79
2022/01/05 02:50:57;;;;;;;13.75;2.80;;;2.90;99.90;;;;;;5115697;27;20035;-82
2022/01/05 02:53:24;;;;;;;14.50;2.28;;;3.00;99.90;;;;;;5115395;27;20126;-83
2022/01/05 02:55:50;;;;;;;8.27;1.45;;;3.10;99.90;;;;;;5098199;27;20082;-78
2022/01/05 02:58:16;;;;;;;14.27;2.22;;;3.10;99.90;;;;;;5116063;27;20082;-79
2022/01/05 03:00:41;;;;;;;14.00;2.42;;;3.20;99.90;;;;;;5098075;27;20122;-91
2022/01/05 03:03:07;;;;;;;13.23;2.10;;;3.20;99.90;;;;;;5098016;27;20039;-79
2022/01/05 03:05:33;;;;;;;18.70;1.90;;;3.20;99.90;;;;;;5115372;27;20046;-82
2022/01/05 03:07:58;;;;;;;17.92;2.65;;;3.20;99.90;;;;;;5133465;27;20067;-79
2022/01/05 03:10:24;;;;;;;16.48;2.78;;;3.20;99.90;;;;;;5115608;27;20098;-90
2022/01/05 03:12:49;;;;;;;12.43;1.92;;;3.20;99.90;;;;;;5098441;27;20463;-79
2022/01/05 03:15:15;;;;;;;17.85;2.17;;;3.30;99.90;;;;;;5115574;27;20038;-83
2022/01/05 03:17:41;;;;;;;15.38;2.38;;;3.40;99.90;;;;;;5114856;27;20058;-80
2022/01/05 03:20:09;;;;;;;10.07;1.92;;;3.50;99.90;;;;;;5115180;27;20043;-82
2022/01/05 03:22:35;;;;;;;18.50;2.20;;;3.50;99.90;;;;;;5114300;27;20775;-86
2022/01/05 03:25:01;;;;;;;12.52;2.15;;;3.60;99.90;;;;;;5115130;27;20043;-79
2022/01/05 03:27:26;;;;;;;18.42;2.00;;;3.60;99.90;;;;;;5115082;27;20431;-81
2022/01/05 03:29:52;;;;;;;15.93;3.70;;;3.60;99.90;;;;;;5114283;27;20126;-91
2022/01/05 03:32:17;;;;;;;13.50;2.25;;;3.60;99.90;;;;;;5114847;27;20043;-78
2022/01/05 03:34:45;;;;;;;10.63;2.08;;;3.60;99.90;;;;;;5114991;27;20039;-90
2022/01/05 03:37:10;;;;;;;12.88;1.40;;;3.60;99.90;;;;;;5115010;27;20043;-78
2022/01/05 03:39:36;;;;;;;16.02;1.98;;;3.70;99.90;;;;;;5115102;27;20467;-78
2022/01/05 03:42:02;;;;;;;13.05;2.15;;;3.60;99.90;;;;;;5115015;27;20115;-80
2022/01/05 03:44:28;;;;;;;12.02;1.52;;;3.80;99.90;;;;;;5114267;27;20097;-78
2022/01/05 03:46:53;;;;;;;9.02;1.83;;;3.70;99.90;;;;;;5114774;27;20095;-85
2022/01/05 03:49:19;;;;;;;6.80;1.75;;;3.90;99.90;;;;;;5097514;27;20533;-81
2022/01/05 03:51:45;;;;;;;11.65;1.30;;;3.80;99.90;;;;;;5132228;27;20379;-80
2022/01/05 03:54:11;;;;;;;6.82;1.05;;;3.90;99.90;;;;;;5114631;27;20031;-86
2022/01/05 03:56:37;;;;;;;12.55;1.88;;;3.90;99.90;;;;;;5132985;27;20814;-81
2022/01/05 03:59:02;;;;;;;10.00;1.80;;;4.00;99.90;;;;;;5113530;27;20096;-86
2022/01/05 04:01:28;;;;;;;9.95;1.77;;;3.90;99.90;;;;;;5114165;27;20042;-79
2022/01/05 04:03:54;;;;;;;8.18;1.10;;;4.00;99.90;;;;;;5097170;27;20066;-89
2022/01/05 04:06:19;;;;;;;11.95;1.70;;;4.00;99.90;;;;;;5113711;27;20507;-82
2022/01/05 04:08:45;;;;;;;10.32;1.58;;;3.90;99.90;;;;;;5097923;28;20143;-87
2022/01/05 04:11:10;;;;;;;10.43;1.58;;;4.00;99.90;;;;;;5097483;28;20032;-90
2022/01/05 04:13:37;;;;;;;8.63;1.42;;;3.90;99.90;;;;;;5132617;28;20084;-92
2022/01/05 04:16:04;;;;;;;8.50;1.02;;;4.00;99.90;;;;;;5114329;28;20074;-84
2022/01/05 04:18:29;;;;;;;7.53;0.60;;;4.00;99.90;;;;;;5113716;28;20035;-82
2022/01/05 04:20:55;;;;;;;16.85;1.48;;;4.00;99.90;;;;;;5114318;28;20384;-89
2022/01/05 04:23:20;;;;;;;13.57;1.83;;;3.80;99.90;;;;;;5113918;28;20474;-82
2022/01/05 04:25:46;;;;;;;8.88;0.95;;;3.80;99.90;;;;;;5096359;28;20047;-88
2022/01/05 04:28:11;;;;;;;6.10;0.95;;;3.70;99.90;;;;;;5114444;28;20055;-88
2022/01/05 04:30:37;;;;;;;6.20;1.10;;;3.70;99.90;;;;;;5115393;28;20046;-84
2022/01/05 04:33:03;;;;;;;5.65;1.55;;;3.60;99.90;;;;;;5112906;28;20043;-79
2022/01/05 04:35:29;;;;;;;7.45;1.48;;;3.60;99.90;;;;;;5097295;28;20043;-89
2022/01/05 04:37:54;;;;;;;10.45;1.63;;;3.40;99.90;;;;;;5097453;28;20042;-83
2022/01/05 04:40:20;;;;;;;11.88;1.52;;;3.50;99.90;;;;;;5113612;28;20049;-86
2022/01/05 04:42:45;;;;;;;10.18;1.20;;;3.50;99.90;;;;;;5097383;28;20135;-78
2022/01/05 04:45:11;;;;;;;8.43;1.30;;;3.40;99.90;;;;;;5097077;28;20076;-83
2022/01/05 04:47:36;;;;;;;8.57;1.20;;;3.40;99.90;;;;;;5096312;28;20551;-79
2022/01/05 04:50:03;;;;;;;11.90;2.00;;;3.40;99.90;;;;;;5114183;28;20046;-79
2022/01/05 04:52:29;;;;;;;10.98;1.48;;;3.60;99.90;;;;;;5113813;28;20074;-85
2022/01/05 04:54:54;;;;;;;15.18;1.38;;;3.50;99.90;;;;;;5113840;28;20074;-82
2022/01/05 04:57:20;;;;;;;13.77;1.88;;;3.50;99.90;;;;;;5114453;28;20486;-89
2022/01/05 04:59:45;;;;;;;8.98;2.33;;;3.60;99.90;;;;;;5114098;28;20491;-83
2022/01/05 05:02:12;;;;;;;16.52;1.85;;;3.60;99.90;;;;;;5113467;28;20042;-81
2022/01/05 05:04:38;;;;;;;11.20;1.92;;;3.70;99.90;;;;;;5113493;28;20047;-80
2022/01/05 05:07:04;;;;;;;15.13;2.80;;;3.50;99.90;;;;;;5113607;28;20039;-79
2022/01/05 05:09:30;;;;;;;15.48;1.60;;;3.60;99.90;;;;;;5098064;27;20493;-79
2022/01/05 05:11:56;;;;;;;18.40;2.28;;;3.50;99.90;;;;;;5117302;27;20039;-82
2022/01/05 05:14:21;;;;;;;10.07;1.35;;;3.50;99.90;;;;;;5117500;27;20110;-88
2022/01/05 05:16:47;;;;;;;16.77;2.22;;;3.60;99.90;;;;;;5117465;27;20051;-82
2022/01/05 05:19:12;;;;;;;12.23;1.75;;;3.50;99.90;;;;;;5100660;27;20448;-79
2022/01/05 05:21:38;;;;;;;21.17;3.22;;;3.50;99.90;;;;;;5116715;27;20079;-79
2022/01/05 05:24:04;;;;;;;12.07;1.92;;;3.60;99.90;;;;;;5117485;27;20039;-88
2022/01/05 05:26:29;;;;;;;10.90;1.08;;;3.70;99.90;;;;;;5117298;27;20164;-84
2022/01/05 05:28:55;;;;;;;15.85;2.28;;;3.70;99.90;;;;;;5116399;27;20487;-78
2022/01/05 05:31:21;;;;;;;20.77;2.58;;;3.60;99.90;;;;;;5099659;27;20050;-80
2022/01/05 05:33:47;;;;;;;11.77;1.63;;;3.80;99.90;;;;;;5117120;27;20043;-80
2022/01/05 05:36:12;;;;;;;13.93;2.20;;;3.80;99.90;;;;;;5116264;27;20035;-82
2022/01/05 05:38:38;;;;;;;11.90;1.77;;;3.80;99.90;;;;;;5116954;27;20059;-81
2022/01/05 05:41:03;;;;;;;7.07;1.67;;;3.90;99.90;;;;;;5116995;27;20041;-81
2022/01/05 05:43:29;;;;;;;16.80;1.65;;;3.80;99.90;;;;;;5117081;27;20444;-91
2022/01/05 05:45:55;;;;;;;12.50;1.85;;;3.80;99.90;;;;;;5117160;27;20043;-80
2022/01/05 05:48:20;;;;;;;15.40;2.38;;;3.80;99.90;;;;;;5116607;27;20039;-82
2022/01/05 05:50:46;;;;;;;16.50;2.85;;;3.90;99.90;;;;;;5116217;27;20387;-86
2022/01/05 05:53:12;;;;;;;13.63;1.65;;;3.80;99.90;;;;;;5099567;27;20058;-88
2022/01/05 05:55:37;;;;;;;11.82;1.75;;;3.80;99.90;;;;;;5116084;27;20043;-83
2022/01/05 05:58:03;;;;;;;12.25;1.80;;;3.80;99.90;;;;;;5116420;27;20168;-81
2022/01/05 06:00:29;;;;;;;17.42;2.42;;;3.90;99.90;;;;;;5116502;27;20031;-78
2022/01/05 06:02:56;;;;;;;15.32;2.45;;;3.80;99.90;;;;;;5115890;27;20035;-79
2022/01/05 06:05:22;;;;;;;12.40;2.00;;;4.00;99.90;;;;;;5098877;27;20035;-80
2022/01/05 06:07:47;;;;;;;6.55;1.90;;;3.90;99.90;;;;;;5099407;27;20050;-79
2022/01/05 06:10:13;;;;;;;6.00;1.67;;;3.90;99.90;;;;;;5099311;27;20039;-83
2022/01/05 06:12:39;;;;;;;11.73;1.73;;;3.80;99.90;;;;;;5098281;27;20379;-78
2022/01/05 06:15:05;;;;;;;9.32;1.65;;;3.80;99.90;;;;;;5134691;27;20035;-84
2022/01/05 06:17:31;;;;;;;10.93;1.77;;;3.80;99.90;;;;;;5115619;27;20039;-83
2022/01/05 06:19:56;;;;;;;20.67;2.22;;;3.80;99.90;;;;;;5114987;28;20096;-83
2022/01/05 06:22:22;;;;;;;14.07;1.90;;;3.70;99.90;;;;;;5115060;27;20039;-78
2022/01/05 06:24:48;;;;;;;20.90;3.10;;;3.60;99.90;;;;;;5098683;27;20103;-87
2022/01/05 06:27:13;;;;;;;14.15;2.33;;;3.70;99.90;;;;;;5115265;27;20441;-79
2022/01/05 06:29:39;;;;;;;18.00;2.58;;;3.70;99.90;;;;;;5099115;27;20039;-81
2022/01/05 06:32:06;;;;;;;18.33;2.40;;;3.80;99.90;;;;;;5098493;27;20479;-80
2022/01/05 06:34:32;;;;;;;13.40;1.83;;;3.80;99.90;;;;;;5098031;27;20035;-80
2022/01/05 06:36:57;;;;;;;15.38;1.75;;;3.80;99.90;;;;;;5098211;27;20047;-79
2022/01/05 06:39:23;;;;;;;7.63;1.42;;;4.00;99.90;;;;;;5133588;27;20039;-87
2022/01/05 06:41:48;;;;;;;10.30;1.63;;;4.20;99.90;;;;;;5115637;27;20566;-80
2022/01/05 06:44:14;;;;;;;16.33;1.50;;;4.20;99.90;;;;;;5115633;27;20480;-82
2022/01/05 06:46:40;;;;;;;6.70;0.85;;;4.20;99.90;;;;;;5114753;27;20512;-79
2022/01/05 06:49:05;;;;;;;10.40;1.85;;;4.20;99.90;;;;;;5115337;27;20418;-78
2022/01/05 06:51:31;;;;;;;11.48;1.33;;;4.20;99.90;;;;;;5114929;27;20115;-80
2022/01/05 06:53:56;;;;;;;12.40;1.50;;;4.10;99.90;;;;;;5097716;27;20081;-80
2022/01/05 06:56:22;;;;;;;6.07;0.68;;;4.10;99.90;;;;;;5115120;27;20479;-82
2022/01/05 06:58:48;;;;;;;12.65;1.25;;;4.10;99.90;;;;;;5133641;27;20049;-87
2022/01/05 07:01:14;;;;;;;6.80;0.75;;;4.10;99.90;;;;;;5132953;27;20035;-85
2022/01/05 07:03:39;;;;;;;6.82;1.70;;;4.20;99.90;;;;;;5115115;27;20039;-86
2022/01/05 07:06:05;;;;;;;9.13;0.82;;;4.10;99.90;;;;;;5114933;27;20483;-82
2022/01/05 07:08:31;;;;;;;6.90;0.65;;;3.90;99.90;;;;;;5114196;27;20078;-80
2022/01/05 07:10:57;;;;;;;12.80;1.10;;;4.10;99.90;;;;;;5115097;27;20035;-83
2022/01/05 07:13:22;;;;;;;10.60;1.08;;;4.00;99.90;;;;;;5097710;27;20475;-81
2022/01/05 07:15:49;;;;;;;6.57;0.85;;;4.10;99.90;;;;;;5114695;27;20046;-82
2022/01/05 07:18:15;;;;;;;10.50;0.93;;;4.00;99.90;;;;;;5115351;27;20035;-78
2022/01/05 07:20:40;;;;;;;13.57;1.00;;;4.00;99.90;;;;;;5097651;27;20032;-79
2022/01/05 07:23:06;;;;;;;5.47;1.00;;;3.90;99.90;;;;;;5114012;27;20055;-80
2022/01/05 07:25:32;;;;;;;17.17;1.52;;;4.00;99.90;;;;;;5132702;27;20061;-84
2022/01/05 07:27:57;;;;;;;10.82;1.77;;;3.90;99.90;;;;;;5097501;27;20035;-82
2022/01/05 07:30:23;;;;;;;10.75;1.70;;;4.00;99.90;;;;;;5114253;27;20500;-83
2022/01/05 07:32:49;;;;;;;13.75;1.80;;;4.10;99.90;;;;;;5097323;27;20039;-82
2022/01/05 07:35:14;;;;;;;16.65;1.70;;;4.10;99.90;;;;;;5097498;27;20035;-80
2022/01/05 07:37:40;;;;;;;14.00;2.42;;;4.10;99.90;;;;;;5114387;27;20047;-80
2022/01/05 07:40:07;;;;;;;9.73;1.30;;;4.20;99.90;;;;;;5114560;27;20482;-78
2022/01/05 07:42:34;;;;;;;17.33;2.00;;;4.20;99.90;;;;;;5113469;27;20046;-84
2022/01/05 07:45:04;;;;;;;17.30;1.52;;;4.20;99.90;;;;;;5114312;27;20049;-79
2022/01/05 07:47:30;;;;;;;18.23;2.20;;;4.20;99.90;;;;;;5097294;27;20131;-79
2022/01/05 07:49:55;;;;;;;17.05;1.63;;;4.70;99.90;;;;;;5113647;27;20063;-79
2022/01/05 07:52:21;;;;;;;12.15;3.00;;;4.30;99.90;;;;;;5132698;27;20046;-85
2022/01/05 07:54:47;;;;;;;13.65;1.48;;;4.30;99.90;;;;;;5133112;27;20043;-84
2022/01/05 07:57:12;;;;;;;13.57;2.03;;;4.60;99.90;;;;;;5113217;28;20031;-80
2022/01/05 07:59:38;;;;;;;13.90;1.92;;;4.40;99.90;;;;;;5114146;27;20047;-79
2022/01/05 08:02:04;;;;;;;6.88;1.25;;;4.50;99.90;;;;;;5113948;27;20095;-83
2022/01/05 08:04:29;;;;;;;14.05;1.65;;;4.60;99.90;;;;;;5113829;27;20039;-80
2022/01/05 08:06:55;;;;;;;9.50;1.73;;;4.60;99.90;;;;;;5114050;27;20387;-80
2022/01/05 08:09:20;;;;;;;11.23;1.00;;;4.70;99.90;;;;;;5113891;28;20395;-79
2022/01/05 08:11:46;;;;;;;12.98;1.00;;;4.60;99.90;;;;;;5096456;28;20081;-79
2022/01/05 08:14:12;;;;;;;7.00;0.65;;;4.70;99.90;;;;;;5097016;28;20134;-79
2022/01/05 08:16:38;;;;;;;6.38;0.82;;;4.70;99.90;;;;;;5113779;28;20157;-86
2022/01/05 08:19:03;;;;;;;9.50;1.13;;;4.70;99.90;;;;;;5096647;28;20046;-81
2022/01/05 08:21:29;;;;;;;10.15;0.95;;;4.70;99.90;;;;;;5096578;28;20062;-83
2022/01/05 08:23:55;;;;;;;11.48;1.27;;;4.70;99.90;;;;;;5096403;28;20039;-80
2022/01/05 08:26:20;;;;;;;12.23;2.38;;;4.70;99.90;;;;;;5096184;28;20048;-79
2022/01/05 08:28:46;;;;;;;7.47;1.08;;;4.80;99.90;;;;;;5097129;28;20087;-80
2022/01/05 08:31:12;;;;;;;8.02;1.00;;;4.70;99.90;;;;;;5113495;28;20067;-83
2022/01/05 08:33:37;;;;;;;10.38;1.20;;;4.70;99.90;;;;;;5096215;28;20047;-83
2022/01/05 08:36:03;;;;;;;16.48;2.10;;;4.70;99.90;;;;;;5132223;28;20043;-83
2022/01/05 08:38:29;;;;;;;12.05;1.50;;;4.80;99.90;;;;;;5113636;28;20035;-82
2022/01/05 08:40:55;;;;;;;26.75;2.92;;;4.80;99.90;;;;;;5113081;28;20100;-80
2022/01/05 08:43:21;;;;;;;20.85;2.40;;;4.90;99.90;;;;;;5114123;27;20047;-81
2022/01/05 08:45:47;;;;;;;13.57;1.98;;;5.30;99.90;;;;;;5117794;27;20543;-80
2022/01/05 08:48:13;;;;;;;17.58;1.38;;;4.90;99.90;;;;;;5117326;27;20035;-79
2022/01/05 08:50:39;;;;;;;13.43;1.33;;;4.90;99.90;;;;;;5117565;27;20043;-83
2022/01/05 08:53:06;;;;;;;12.38;1.60;;;5.00;99.90;;;;;;5100096;27;20039;-81
2022/01/05 08:55:39;;;;;;;9.43;1.10;;;6.80;99.90;;;;;;5117614;27;20046;-81
2022/01/05 08:58:06;;;;;;;6.90;1.42;;;5.10;99.90;;;;;;5100642;27;20046;-86
2022/01/05 09:00:35;;;;;;;12.70;1.45;;;5.10;99.90;;;;;;5100094;27;20039;-86
2022/01/05 09:03:00;;;;;;;14.02;1.88;;;5.20;99.90;;;;;;5117259;27;20046;-84
2022/01/05 09:05:26;;;;;;;11.88;1.15;;;5.10;99.90;;;;;;5099684;27;20035;-80
2022/01/05 09:07:52;;;;;;;13.73;2.13;;;5.20;99.90;;;;;;5116811;27;20042;-87
2022/01/05 09:10:17;;;;;;;13.00;1.70;;;5.30;99.90;;;;;;5117413;27;20398;-80
2022/01/05 09:12:44;;;;;;;9.63;1.15;;;5.20;99.90;;;;;;5116807;27;20039;-83
2022/01/05 09:15:09;;;;;;;5.10;0.93;;;5.10;99.90;;;;;;5116847;27;20031;-83
2022/01/05 09:17:35;;;;;;;11.18;1.30;;;5.40;99.90;;;;;;5117284;27;20554;-88
2022/01/05 09:20:01;;;;;;;15.60;1.13;;;5.20;99.90;;;;;;5099997;27;20046;-82
2022/01/05 09:22:26;;;;;;;9.80;1.13;;;5.00;99.90;;;;;;5116454;27;20398;-80
2022/01/05 09:24:52;;;;;;;13.98;1.75;;;5.10;99.90;;;;;;5100425;27;20047;-89
2022/01/05 09:27:19;;;;;;;9.18;1.45;;;5.50;99.90;;;;;;5099935;27;20047;-78
2022/01/05 09:29:46;;;;;;;19.85;1.58;;;5.20;99.90;;;;;;5117178;27;20039;-83
2022/01/05 09:32:11;;;;;;;17.13;2.15;;;5.20;99.90;;;;;;5116864;27;20083;-81
2022/01/05 09:34:40;;;;;;;18.90;2.10;;;5.10;99.90;;;;;;5099381;27;20050;-81
2022/01/05 09:37:16;;;;;;;13.30;1.55;;;5.10;99.90;;;;;;5091332;27;20471;-87
2022/01/05 09:42:25;;;;;;;15.85;1.85;;;5.20;99.90;;;;;;5109342;27;20046;-84
2022/01/05 09:44:53;;;;;;;17.38;1.88;;;5.30;99.90;;;;;;5109975;27;20043;-81
2022/01/05 09:47:51;;;;;;;18.30;2.28;;;5.50;99.90;;;;;;5116315;27;20043;-85
2022/01/05 09:50:19;;;;;;;17.65;2.05;;;5.60;99.90;;;;;;5109684;27;20550;-82
2022/01/05 09:52:46;;;;;;;18.58;2.60;;;5.60;99.90;;;;;;5116394;27;20060;-81
2022/01/05 09:55:14;;;;;;;18.17;2.30;;;5.80;99.90;;;;;;5092684;27;20447;-80
2022/01/05 09:57:42;;;;;;;15.23;2.80;;;5.70;99.90;;;;;;5115986;27;20122;-80
2022/01/05 10:00:10;;;;;;;15.73;2.60;;;5.70;99.90;;;;;;5112286;27;20515;-85
2022/01/05 10:02:36;;;;;;;17.85;2.40;;;5.80;99.90;;;;;;5116264;27;20043;-86
2022/01/05 10:05:03;;;;;;;14.45;1.92;;;5.80;99.90;;;;;;5115553;27;20050;-85
2022/01/05 10:07:29;;;;;;;14.68;3.38;;;5.80;99.90;;;;;;5097587;27;20043;-86
2022/01/05 10:09:54;;;;;;;15.63;2.15;;;5.80;99.90;;;;;;5109791;27;20569;-94
2022/01/05 10:12:22;;;;;;;15.27;2.05;;;5.70;99.90;;;;;;5096877;27;20087;-80
2022/01/05 10:14:49;;;;;;;15.00;2.33;;;5.80;99.90;;;;;;5107641;27;20051;-78
2022/01/05 10:17:22;;;;;;;10.77;1.58;;;5.80;99.90;;;;;;5108582;27;20039;-78
2022/01/05 10:20:14;;;;;;;14.13;2.33;;;5.40;99.90;;;;;;5111329;27;20065;-78
2022/01/05 10:22:42;;;;;;;14.05;2.05;;;5.80;99.90;;;;;;5103488;27;20057;-86
2022/01/05 10:25:14;;;;;;;16.05;2.55;;;5.90;99.90;;;;;;5112025;27;20044;-84
2022/01/05 10:27:40;;;;;;;10.88;1.55;;;5.90;99.90;;;;;;5127013;27;20092;-91
2022/01/05 10:30:11;;;;;;;13.15;2.13;;;5.80;99.90;;;;;;5098670;27;20039;-88
2022/01/05 10:32:42;;;;;;;19.70;1.73;;;6.00;99.90;;;;;;5098878;27;20039;-86
2022/01/05 10:35:19;;;;;;;18.45;2.85;;;6.00;99.90;;;;;;5115701;27;20473;-83
2022/01/05 10:37:55;;;;;;;11.48;1.95;;;6.10;99.90;;;;;;5114938;27;20131;-78
2022/01/05 10:40:22;;;;;;;13.75;1.80;;;6.00;99.90;;;;;;5094738;27;20660;-92
2022/01/05 10:42:50;;;;;;;14.07;2.70;;;6.10;99.90;;;;;;5094348;27;20053;-78
2022/01/05 10:45:19;;;;;;;18.25;1.88;;;7.40;99.90;;;;;;5098207;27;20046;-78
2022/01/05 10:48:09;;;;;;;15.88;2.70;;;6.30;99.90;;;;;;5115208;27;20047;-82
2022/01/05 10:50:35;;;;;;;21.60;2.72;;;6.40;99.90;;;;;;5109422;27;20474;-88
2022/01/05 10:53:02;;;;;;;15.95;2.40;;;6.40;99.90;;;;;;5097981;27;20107;-78
2022/01/05 10:55:29;;;;;;;25.60;2.92;;;6.40;99.90;;;;;;5114306;27;20035;-88
2022/01/05 10:57:58;;;;;;;19.15;2.88;;;6.60;99.90;;;;;;5097995;27;20471;-79
2022/01/05 11:00:37;;;;;;;21.50;4.57;;;6.60;99.90;;;;;;5114069;27;20038;-89
2022/01/05 11:03:35;;;;;;;27.38;3.72;;;6.70;99.90;;;;;;5097264;27;20051;-79
2022/01/05 11:06:13;;;;;;;20.80;2.67;;;6.70;99.90;;;;;;5129134;27;20077;-86
2022/01/05 11:08:53;;;;;;;19.58;2.70;;;6.70;99.90;;;;;;5114434;27;20051;-79
2022/01/05 11:11:38;;;;;;;16.75;1.90;;;6.80;99.90;;;;;;5111751;27;20042;-83
2022/01/05 11:14:11;;;;;;;26.10;2.92;;;6.80;99.90;;;;;;5113694;27;20054;-87
2022/01/05 11:16:43;;;;;;;16.55;3.30;;;6.70;99.90;;;;;;5097647;27;20039;-85
2022/01/05 11:19:19;;;;;;;25.70;2.78;;;6.80;99.90;;;;;;5114436;27;20101;-80
2022/01/05 11:22:05;;;;;;;27.38;4.32;;;6.90;99.90;;;;;;5106361;27;20135;-88
2022/01/05 11:24:37;;;;;;;20.45;3.40;;;6.80;99.90;;;;;;5114530;27;20119;-89
2022/01/05 11:27:04;;;;;;;18.52;2.83;;;6.70;99.90;;;;;;5110038;28;20063;-87
2022/01/05 11:29:30;;;;;;;20.38;2.92;;;6.80;99.90;;;;;;5111450;28;20083;-85
2022/01/05 11:31:57;;;;;;;19.55;3.40;;;6.70;99.90;;;;;;5111973;28;20560;-85
2022/01/05 11:34:26;;;;;;;22.30;3.40;;;6.80;99.90;;;;;;5111425;28;20040;-81
2022/01/05 11:36:51;;;;;;;26.13;4.00;;;6.90;99.90;;;;;;5111805;28;20050;-93
2022/01/05 11:39:17;;;;;;;20.48;3.03;;;6.90;99.90;;;;;;5112086;28;20043;-92
2022/01/05 11:41:46;;;;;;;18.98;2.47;;;7.80;99.90;;;;;;5104334;28;20044;-91
2022/01/05 11:44:13;;;;;;;17.05;3.08;;;6.90;99.90;;;;;;5095076;28;20043;-88
2022/01/05 11:46:42;;;;;;;17.85;3.13;;;7.00;99.90;;;;;;5110549;28;20048;-92
2022/01/05 11:49:11;;;;;;;21.50;2.67;;;7.10;99.90;;;;;;5092917;28;20096;-93
2022/01/05 11:51:43;;;;;;;23.33;3.40;;;6.80;99.90;;;;;;5111868;28;20046;-91
2022/01/05 11:54:13;;;;;;;13.73;2.58;;;6.90;99.90;;;;;;5093941;28;20047;-86
2022/01/05 11:56:44;;;;;;;13.32;2.70;;;7.00;99.90;;;;;;5110186;28;20506;-77
2022/01/05 11:59:34;;;;;;;15.90;2.22;;;6.90;99.90;;;;;;5111641;28;20526;-94
2022/01/05 12:02:12;;;;;;;16.67;3.17;;;6.90;99.90;;;;;;5110733;28;20147;-90
2022/01/05 12:04:56;;;;;;;15.95;2.00;;;6.90;99.90;;;;;;5110773;28;20122;-89
2022/01/05 12:07:45;;;;;;;23.45;2.55;;;6.50;99.90;;;;;;5111587;28;20043;-90
2022/01/05 12:10:23;;;;;;;18.98;2.65;;;6.90;99.90;;;;;;5093418;28;20044;-77
2022/01/05 12:13:05;;;;;;;23.58;3.92;;;6.90;99.90;;;;;;5111155;28;20483;-76
2022/01/05 12:15:59;;;;;;;17.38;2.88;;;6.90;99.90;;;;;;5086063;28;20046;-90
2022/01/05 12:18:28;;;;;;;18.17;2.40;;;7.00;99.90;;;;;;5110947;28;20039;-77
2022/01/05 12:20:54;;;;;;;17.33;2.65;;;7.00;99.90;;;;;;5115520;28;20495;-78
2022/01/05 12:23:30;;;;;;;15.90;2.33;;;7.00;99.90;;;;;;5098044;28;20035;-88
2022/01/05 12:26:05;;;;;;;17.08;2.88;;;7.00;99.90;;;;;;5114614;28;20051;-81
2022/01/05 12:40:30;;;;;;;18.92;3.08;;;6.90;99.90;;;;;;5148302;27;1186377;-77
2022/01/05 12:43:08;;;;;;;16.17;2.75;;;7.20;99.90;;;;;;5140607;27;20103;-79
2022/01/05 12:45:52;;;;;;;14.27;2.03;;;7.20;99.90;;;;;;5140725;27;20397;-79
2022/01/05 12:48:33;;;;;;;23.00;4.10;;;7.10;99.90;;;;;;5124573;27;20043;-78
2022/01/05 12:51:22;;;;;;;22.48;2.85;;;7.20;99.90;;;;;;5143334;27;20047;-76
2022/01/05 12:53:56;;;;;;;20.92;2.63;;;7.00;99.90;;;;;;5114982;27;20496;-80
2022/01/05 12:56:24;;;;;;;20.93;2.53;;;7.10;99.90;;;;;;5143069;27;20091;-76
2022/01/05 12:58:51;;;;;;;16.20;2.80;;;7.00;99.90;;;;;;5143539;27;20042;-78
2022/01/05 13:01:22;;;;;;;24.10;2.92;;;7.00;99.90;;;;;;5124953;27;20030;-80
2022/01/05 13:03:47;;;;;;;24.50;3.35;;;7.00;99.90;;;;;;5139990;27;20039;-79
2022/01/05 13:06:19;;;;;;;20.95;3.60;;;6.90;99.90;;;;;;5135135;27;20042;-76